createdAt,value
2022-10-19T00:01:27.126Z,2.40
2022-10-19T00:05:23.507Z,2.70
2022-10-19T00:08:44.685Z,2.40
2022-10-19T00:12:21.815Z,2.90
2022-10-19T00:16:19.309Z,3.10
2022-10-19T00:19:58.658Z,3.20
2022-10-19T00:23:38.574Z,2.90
2022-10-19T00:26:59.298Z,3.60
2022-10-19T00:30:56.778Z,3.70
2022-10-19T00:34:18.297Z,3.40
2022-10-19T00:37:55.174Z,3.70
2022-10-19T00:41:35.764Z,4.40
2022-10-19T00:45:29.469Z,4.70
2022-10-19T00:49:33.072Z,5.20
2022-10-19T00:53:12.810Z,4.70
2022-10-19T00:56:35.122Z,6.10
2022-10-19T01:00:11.866Z,5.90
2022-10-19T01:03:49.282Z,6.00
2022-10-19T01:07:27.838Z,5.90
2022-10-19T01:11:11.903Z,5.20
2022-10-19T01:15:13.727Z,5.50
2022-10-19T01:18:45.860Z,5.10
2022-10-19T01:22:41.599Z,5.70
2022-10-19T01:26:53.921Z,6.30
2022-10-19T01:30:52.466Z,6.10
2022-10-19T01:34:55.081Z,5.60
2022-10-19T01:38:34.362Z,4.90
2022-10-19T01:42:34.755Z,5.00
2022-10-19T01:46:30.362Z,5.80
2022-10-19T01:49:59.943Z,5.10
2022-10-19T01:53:40.869Z,5.00
2022-10-19T01:57:32.911Z,4.30
2022-10-19T02:00:55.924Z,5.10
2022-10-19T02:04:32.818Z,4.40
2022-10-19T02:08:14.046Z,5.10
2022-10-19T02:12:09.551Z,4.90
2022-10-19T02:15:52.942Z,5.50
2022-10-19T02:19:33.193Z,5.30
2022-10-19T02:22:53.956Z,5.40
2022-10-19T02:26:32.302Z,4.60
2022-10-19T02:30:13.345Z,4.80
2022-10-19T02:33:47.132Z,5.10
2022-10-19T02:37:25.685Z,6.00
2022-10-19T02:41:41.632Z,5.30
2022-10-19T02:45:05.233Z,4.00
2022-10-19T02:49:01.471Z,5.00
2022-10-19T02:52:22.382Z,4.30
2022-10-19T02:55:59.955Z,5.10
2022-10-19T02:59:37.631Z,5.50
2022-10-19T03:03:15.386Z,5.80
2022-10-19T03:06:53.020Z,6.00
2022-10-19T03:10:30.759Z,5.20
2022-10-19T03:14:08.430Z,6.10
2022-10-19T03:17:46.066Z,5.60
2022-10-19T03:21:23.806Z,5.90
2022-10-19T03:25:01.463Z,6.90
2022-10-19T03:28:59.022Z,6.60
2022-10-19T03:32:19.972Z,6.60
2022-10-19T03:36:19.767Z,6.80
2022-10-19T03:40:00.207Z,6.80
2022-10-19T03:43:20.722Z,6.00
2022-10-19T03:46:58.551Z,7.30
2022-10-19T03:51:00.683Z,6.20
2022-10-19T03:54:24.964Z,4.70
2022-10-19T03:57:59.222Z,6.40
2022-10-19T04:01:39.838Z,5.70
2022-10-19T04:05:14.797Z,5.60
2022-10-19T04:08:53.285Z,6.00
2022-10-19T04:12:30.004Z,6.30
2022-10-19T04:16:09.584Z,6.80
2022-10-19T04:19:45.253Z,6.90
2022-10-19T04:23:41.686Z,7.10
2022-10-19T04:27:02.267Z,6.50
2022-10-19T04:30:39.831Z,6.00
2022-10-19T04:34:39.211Z,7.80
2022-10-19T04:38:01.414Z,9.50
2022-10-19T04:41:39.495Z,6.00
2022-10-19T04:45:16.937Z,5.70
2022-10-19T04:49:16.420Z,7.10
2022-10-19T04:52:40.368Z,6.60
2022-10-19T04:56:21.116Z,6.20
2022-10-19T04:59:55.722Z,6.70
2022-10-19T05:03:33.358Z,5.90
2022-10-19T05:07:11.237Z,5.30
2022-10-19T05:10:48.764Z,6.20
2022-10-19T05:18:23.109Z,6.30
2022-10-19T05:21:43.855Z,6.30
2022-10-19T05:25:40.827Z,5.50
2022-10-19T05:29:02.956Z,6.20
2022-10-19T05:32:57.680Z,5.60
2022-10-19T05:36:21.081Z,5.50
2022-10-19T05:39:55.767Z,7.00
2022-10-19T05:44:00.170Z,6.60
2022-10-19T05:47:39.569Z,7.00
2022-10-19T05:51:20.611Z,6.60
2022-10-19T05:54:41.355Z,6.20
2022-10-19T05:58:19.145Z,6.40
2022-10-19T06:01:56.869Z,7.00
2022-10-19T06:05:36.793Z,6.70
2022-10-19T06:09:35.346Z,7.90
2022-10-19T06:13:15.928Z,6.90
2022-10-19T06:16:36.589Z,6.10
2022-10-19T06:20:14.622Z,5.90
2022-10-19T06:24:11.127Z,8.30
2022-10-19T06:27:32.271Z,6.60
2022-10-19T06:31:30.626Z,6.70
2022-10-19T06:34:56.350Z,8.20
2022-10-19T06:38:29.061Z,6.70
2022-10-19T06:42:06.739Z,6.90
2022-10-19T06:45:44.535Z,6.60
2022-10-19T06:49:22.919Z,5.70
2022-10-19T06:52:59.985Z,6.30
2022-10-19T06:56:37.509Z,6.70
2022-10-19T07:00:34.153Z,6.30
2022-10-19T07:03:55.485Z,6.20
2022-10-19T07:07:32.989Z,5.70
2022-10-19T07:11:29.320Z,5.50
2022-10-19T07:14:51.314Z,6.60
2022-10-19T07:18:47.004Z,5.60
2022-10-19T07:22:07.691Z,5.40
2022-10-19T07:25:45.239Z,5.60
2022-10-19T07:29:23.443Z,5.40
2022-10-19T07:33:19.358Z,4.80
2022-10-19T07:36:45.131Z,4.40
2022-10-19T07:40:17.978Z,4.50
2022-10-19T07:43:57.841Z,5.90
2022-10-19T07:47:34.548Z,4.90
2022-10-19T07:51:13.049Z,4.50
2022-10-19T07:54:49.781Z,3.80
2022-10-19T07:58:45.734Z,5.40
2022-10-19T08:02:14.228Z,4.40
2022-10-19T08:05:44.321Z,3.80
2022-10-19T08:09:52.890Z,3.30
2022-10-19T08:13:33.917Z,3.10
2022-10-19T08:16:54.605Z,3.90
2022-10-19T08:20:32.762Z,3.30
2022-10-19T08:24:11.694Z,3.80
2022-10-19T08:27:47.930Z,3.20
2022-10-19T08:31:25.254Z,3.00
2022-10-19T08:35:22.000Z,3.10
2022-10-19T08:38:44.967Z,3.10
2022-10-19T08:42:28.592Z,2.90
2022-10-19T08:46:14.209Z,3.00
2022-10-19T08:49:36.485Z,2.70
2022-10-19T08:53:43.516Z,2.30
2022-10-19T08:57:07.357Z,2.80
2022-10-19T09:00:47.427Z,2.90
2022-10-19T09:04:47.150Z,2.90
2022-10-19T09:08:13.094Z,2.60
2022-10-19T09:11:49.471Z,2.50
2022-10-19T09:15:46.595Z,3.20
2022-10-19T09:19:30.282Z,2.20
2022-10-19T09:23:20.769Z,1.90
2022-10-19T09:27:03.363Z,1.70
2022-10-19T09:30:30.116Z,1.90
2022-10-19T09:34:06.896Z,2.10
2022-10-19T09:37:45.680Z,1.80
2022-10-19T09:41:43.308Z,2.00
2022-10-19T09:45:29.051Z,1.60
2022-10-19T09:49:08.245Z,1.50
2022-10-19T09:53:15.381Z,1.10
2022-10-19T09:56:56.732Z,1.20
2022-10-19T10:00:23.104Z,1.10
2022-10-19T10:04:16.598Z,1.00
2022-10-19T10:07:56.014Z,1.40
2022-10-19T10:11:37.642Z,1.10
2022-10-19T10:14:58.398Z,1.10
2022-10-19T10:18:58.186Z,0.90
2022-10-19T10:22:33.112Z,1.20
2022-10-19T10:25:58.248Z,1.10
2022-10-19T10:29:36.780Z,1.10
2022-10-19T10:33:27.111Z,1.20
2022-10-19T10:36:59.993Z,0.80
2022-10-19T10:40:39.121Z,1.00
2022-10-19T10:44:20.908Z,0.90
2022-10-19T10:47:53.634Z,1.60
2022-10-19T10:51:35.287Z,1.10
2022-10-19T10:55:11.252Z,1.20
2022-10-19T10:58:57.057Z,1.20
2022-10-19T11:02:55.671Z,1.10
2022-10-19T11:06:44.401Z,0.90
2022-10-19T11:10:33.599Z,1.10
2022-10-19T11:14:49.413Z,1.10
2022-10-19T11:18:46.432Z,1.20
2022-10-19T11:22:26.251Z,1.20
2022-10-19T11:26:23.125Z,1.00
2022-10-19T11:30:05.941Z,1.30
2022-10-19T11:34:48.426Z,1.40
2022-10-19T11:38:24.159Z,1.00
2022-10-19T11:42:43.451Z,1.20
2022-10-19T11:46:32.037Z,1.10
2022-10-19T11:50:34.613Z,0.90
2022-10-19T11:54:53.901Z,0.90
2022-10-19T11:58:50.000Z,1.20
2022-10-19T12:02:42.807Z,1.60
2022-10-19T12:06:44.698Z,1.40
2022-10-19T12:10:41.131Z,1.00
2022-10-19T12:14:46.251Z,0.90
2022-10-19T12:18:48.800Z,1.10
2022-10-19T12:22:21.119Z,0.90
2022-10-19T12:25:53.229Z,0.90
2022-10-19T12:29:29.882Z,1.00
2022-10-19T12:33:44.899Z,0.90
2022-10-19T12:37:26.565Z,0.90
2022-10-19T12:41:02.120Z,0.80
2022-10-19T12:44:58.656Z,1.20
2022-10-19T12:48:44.772Z,1.10
2022-10-19T12:52:08.320Z,1.00
2022-10-19T12:56:31.547Z,1.20
2022-10-19T13:00:20.480Z,1.20
2022-10-19T13:03:47.346Z,1.00
2022-10-19T13:07:20.712Z,0.90
2022-10-19T13:11:14.835Z,1.30
2022-10-19T13:14:57.571Z,1.00
2022-10-19T13:19:00.036Z,1.00
2022-10-19T13:22:27.939Z,1.30
2022-10-19T13:26:44.582Z,0.90
2022-10-19T13:30:44.120Z,0.90
2022-10-19T13:34:25.311Z,1.40
2022-10-19T13:38:09.197Z,1.00
2022-10-19T13:41:46.143Z,1.30
2022-10-19T13:45:24.671Z,2.00
2022-10-19T13:49:02.407Z,0.90
2022-10-19T13:53:19.535Z,1.00
2022-10-19T13:57:39.827Z,0.90
2022-10-19T14:01:09.015Z,1.10
2022-10-19T14:04:57.004Z,1.20
2022-10-19T14:08:46.284Z,0.80
2022-10-19T14:12:24.827Z,0.90
2022-10-19T14:15:58.038Z,0.50
2022-10-19T14:19:46.824Z,0.90
2022-10-19T14:23:23.450Z,1.20
2022-10-19T14:26:48.562Z,0.70
2022-10-19T14:30:34.172Z,0.70
2022-10-19T14:34:15.014Z,1.20
2022-10-19T14:38:00.517Z,1.30
2022-10-19T14:41:28.304Z,1.40
2022-10-19T14:45:04.081Z,1.20
2022-10-19T14:49:05.341Z,1.20
2022-10-19T14:52:49.165Z,1.20
2022-10-19T15:00:24.115Z,1.60
2022-10-19T15:04:12.772Z,1.90
2022-10-19T15:07:41.292Z,1.40
2022-10-19T15:11:39.963Z,1.30
2022-10-19T15:15:16.769Z,0.90
2022-10-19T15:18:49.279Z,1.00
2022-10-19T15:22:39.694Z,1.30
2022-10-19T15:26:27.780Z,1.10
2022-10-19T15:30:23.515Z,1.10
2022-10-19T15:34:29.033Z,1.30
2022-10-19T15:38:05.697Z,1.60
2022-10-19T15:41:55.558Z,1.20
2022-10-19T15:45:36.393Z,1.50
2022-10-19T15:49:56.514Z,1.10
2022-10-19T15:53:25.210Z,1.70
2022-10-19T15:57:33.248Z,1.60
2022-10-19T16:01:19.594Z,1.70
2022-10-19T16:05:30.389Z,1.70
2022-10-19T16:08:58.717Z,1.50
2022-10-19T16:12:37.438Z,2.00
2022-10-19T16:16:12.234Z,2.40
2022-10-19T16:20:06.109Z,2.30
2022-10-19T16:23:30.509Z,2.60
2022-10-19T16:27:24.450Z,3.70
2022-10-19T16:30:50.947Z,4.00
2022-10-19T16:34:25.690Z,3.40
2022-10-19T16:38:00.839Z,4.00
2022-10-19T16:41:57.168Z,3.70
2022-10-19T16:45:23.891Z,4.30
2022-10-19T16:49:20.488Z,4.60
2022-10-19T16:52:44.226Z,4.00
2022-10-19T16:56:28.185Z,3.80
2022-10-19T17:00:03.006Z,4.50
2022-10-19T17:03:41.328Z,3.50
2022-10-19T17:07:26.066Z,4.60
2022-10-19T17:11:34.923Z,4.20
2022-10-19T17:15:41.427Z,4.60
2022-10-19T17:19:01.734Z,5.60
2022-10-19T17:22:37.495Z,6.60
2022-10-19T17:26:37.832Z,6.30
2022-10-19T17:30:18.406Z,4.80
2022-10-19T17:33:43.674Z,6.40
2022-10-19T17:37:38.750Z,5.70
2022-10-19T17:41:19.303Z,5.30
2022-10-19T17:44:40.260Z,6.30
2022-10-19T17:48:20.244Z,4.40
2022-10-19T17:52:04.270Z,5.50
2022-10-19T17:55:36.910Z,4.60
2022-10-19T17:59:12.378Z,4.60
2022-10-19T18:02:49.197Z,4.80
2022-10-19T18:06:34.730Z,3.20
2022-10-19T18:10:03.947Z,5.50
2022-10-19T18:14:06.335Z,5.80
2022-10-19T18:17:27.915Z,5.30
2022-10-19T18:21:11.464Z,5.40
2022-10-19T18:25:04.809Z,4.50
2022-10-19T18:28:29.255Z,4.80
2022-10-19T18:35:42.369Z,10.60
2022-10-19T18:39:21.106Z,11.30
2022-10-19T18:42:57.728Z,7.90
2022-10-19T18:46:57.881Z,7.40
2022-10-19T18:50:37.656Z,8.10
2022-10-19T18:57:56.111Z,8.30
2022-10-19T19:02:01.395Z,7.10
2022-10-19T19:05:24.009Z,5.70
2022-10-19T19:09:02.283Z,7.70
2022-10-19T19:12:38.787Z,7.60
2022-10-19T19:16:41.586Z,6.70
2022-10-19T19:20:23.493Z,6.70
2022-10-19T19:24:07.110Z,6.50
2022-10-19T19:27:31.581Z,6.90
2022-10-19T19:31:06.900Z,7.00
2022-10-19T19:35:08.974Z,7.10
2022-10-19T19:38:31.149Z,6.10
2022-10-19T19:42:08.953Z,7.20
2022-10-19T19:46:09.200Z,8.10
2022-10-19T19:49:50.911Z,8.20
2022-10-19T19:53:30.875Z,7.40
2022-10-19T19:57:00.549Z,7.80
2022-10-19T20:00:55.165Z,8.30
2022-10-19T20:04:41.829Z,8.20
2022-10-19T20:08:06.451Z,9.30
2022-10-19T20:11:42.604Z,8.00
2022-10-19T20:15:19.007Z,8.50
2022-10-19T20:19:05.481Z,10.20
2022-10-19T20:22:59.376Z,9.70
2022-10-19T20:26:41.726Z,8.30
2022-10-19T20:30:24.085Z,7.90
2022-10-19T20:34:12.506Z,7.90
2022-10-19T20:37:52.262Z,7.70
2022-10-19T20:41:35.356Z,6.60
2022-10-19T20:44:59.081Z,7.70
2022-10-19T20:48:59.181Z,6.60
2022-10-19T20:52:38.943Z,6.20
2022-10-19T20:56:29.537Z,7.10
2022-10-19T20:59:50.580Z,6.10
2022-10-19T21:03:28.708Z,4.90
2022-10-19T21:07:25.877Z,5.20
2022-10-19T21:11:37.481Z,4.80
2022-10-19T21:14:59.327Z,4.20
2022-10-19T21:18:37.434Z,6.10
2022-10-19T21:22:14.599Z,5.50
2022-10-19T21:26:17.128Z,7.00
2022-10-19T21:29:56.574Z,7.60
2022-10-19T21:33:36.050Z,7.10
2022-10-19T21:37:04.925Z,6.70
2022-10-19T21:40:39.507Z,6.00
2022-10-19T21:44:35.875Z,4.70
2022-10-19T21:47:56.620Z,4.80
2022-10-19T21:51:44.780Z,4.50
2022-10-19T21:55:34.542Z,3.80
2022-10-19T21:59:14.742Z,3.80
2022-10-19T22:02:36.089Z,4.50
2022-10-19T22:06:15.764Z,4.00
2022-10-19T22:10:00.768Z,4.20
2022-10-19T22:13:35.521Z,4.50
2022-10-19T22:17:08.953Z,4.40
2022-10-19T22:21:14.925Z,5.10
2022-10-19T22:24:54.821Z,4.50
2022-10-19T22:28:18.000Z,4.10
2022-10-19T22:31:53.140Z,4.40
2022-10-19T22:35:30.637Z,3.60
2022-10-19T22:39:29.337Z,3.00
2022-10-19T22:42:50.113Z,2.50
2022-10-19T22:46:27.919Z,3.30
2022-10-19T22:50:06.882Z,4.20
2022-10-19T22:53:43.232Z,3.00
2022-10-19T22:57:22.827Z,3.90
2022-10-19T23:01:17.341Z,2.90
2022-10-19T23:04:38.350Z,3.00
2022-10-19T23:08:16.254Z,2.10
2022-10-19T23:11:56.178Z,2.90
2022-10-19T23:15:51.020Z,3.60
2022-10-19T23:19:12.058Z,3.40
2022-10-19T23:23:08.396Z,5.20
2022-10-19T23:26:28.968Z,6.90
2022-10-19T23:30:26.558Z,4.40
2022-10-19T23:33:51.147Z,5.30
2022-10-19T23:37:25.773Z,3.50
2022-10-19T23:41:03.674Z,4.70
2022-10-19T23:44:40.527Z,4.80
2022-10-19T23:48:18.271Z,5.60
2022-10-19T23:51:55.826Z,5.50
2022-10-19T23:55:33.435Z,3.60
2022-10-19T23:59:11.177Z,3.80
